Time;durP1;ratioP1;P1;durP2;ratioP2;P2;SDS_P1;SDS_P2;PMS_P1;PMS_P2;Temp;Humidity;BMP_temperature;BMP_pressure;BME280_temperature;BME280_humidity;BME280_pressure;Samples;Min_cycle;Max_cycle;Signal;HPM_P1;HPM_P2
2023/02/22 00:04:03;;;;;;;5.45;2.10;;;-0.20;99.90;;;;;;8137347;29;20024;-80
2023/02/22 00:08:08;;;;;;;3.38;1.65;;;-0.20;99.90;;;;;;8135017;29;20038;-80
2023/02/22 00:12:09;;;;;;;5.65;2.05;;;0.00;99.90;;;;;;8137856;29;20020;-79
2023/02/22 00:16:14;;;;;;;3.95;1.90;;;-0.10;99.90;;;;;;8136853;29;20047;-78
2023/02/22 00:20:18;;;;;;;3.65;1.95;;;-0.30;99.90;;;;;;8137902;29;20032;-78
2023/02/22 00:24:21;;;;;;;9.02;2.45;;;-0.40;99.90;;;;;;8136632;29;20024;-80
2023/02/22 00:28:25;;;;;;;5.45;2.40;;;-0.30;99.90;;;;;;8132254;29;20024;-80
2023/02/22 00:32:26;;;;;;;7.43;2.70;;;-0.20;99.90;;;;;;8136966;29;20032;-80
2023/02/22 00:36:26;;;;;;;7.50;2.97;;;-0.30;99.90;;;;;;8136729;29;20028;-80
2023/02/22 00:40:30;;;;;;;6.93;2.55;;;-0.40;99.90;;;;;;8137381;29;20437;-80
2023/02/22 00:44:31;;;;;;;3.78;2.03;;;-0.50;99.90;;;;;;8136218;29;20119;-80
2023/02/22 00:48:32;;;;;;;2.92;1.70;;;-0.10;99.90;;;;;;8138004;29;20020;-80
2023/02/22 00:52:34;;;;;;;4.68;2.28;;;-0.20;99.90;;;;;;8136670;29;20023;-79
2023/02/22 00:56:36;;;;;;;2.78;2.00;;;-0.40;99.90;;;;;;8137088;29;20059;-80
2023/02/22 01:00:40;;;;;;;2.78;1.70;;;-0.60;99.90;;;;;;8136573;29;20028;-80
2023/02/22 01:04:41;;;;;;;3.38;1.83;;;-0.70;99.90;;;;;;8136006;29;20028;-80
2023/02/22 01:08:46;;;;;;;4.05;2.28;;;-0.70;99.90;;;;;;8136807;29;20036;-80
2023/02/22 01:12:47;;;;;;;4.97;1.95;;;-0.80;99.90;;;;;;8136429;29;20036;-80
2023/02/22 01:16:49;;;;;;;5.95;2.15;;;-0.90;99.90;;;;;;8136284;29;20429;-80
2023/02/22 01:20:50;;;;;;;4.15;2.10;;;-1.00;99.90;;;;;;8136272;29;20485;-80
2023/02/22 01:24:50;;;;;;;3.85;2.50;;;-1.00;99.90;;;;;;8136978;29;20156;-78
2023/02/22 01:28:51;;;;;;;5.13;2.42;;;-1.10;99.90;;;;;;8141648;29;20095;-80
2023/02/22 01:32:52;;;;;;;5.03;2.60;;;-1.10;99.90;;;;;;8143574;29;20056;-80
2023/02/22 01:36:53;;;;;;;4.00;1.67;;;-1.00;99.90;;;;;;8146222;29;20024;-80
2023/02/22 01:40:53;;;;;;;4.70;1.92;;;-0.90;99.90;;;;;;8146232;29;20035;-80
2023/02/22 01:45:34;;;;;;;3.45;2.13;;;-0.90;99.90;;;;;;8150383;29;20039;-79
2023/02/22 01:49:44;;;;;;;3.85;1.92;;;-1.00;99.90;;;;;;8148671;29;20083;-80
2023/02/22 01:54:02;;;;;;;4.75;1.90;;;-1.00;99.90;;;;;;8141887;29;20115;-79
2023/02/22 01:58:04;;;;;;;2.55;1.63;;;-1.10;99.90;;;;;;8139104;29;20028;-80
2023/02/22 02:02:05;;;;;;;3.63;2.00;;;-1.10;99.90;;;;;;8139587;29;20052;-80
2023/02/22 02:06:13;;;;;;;3.67;2.10;;;-1.10;99.90;;;;;;8140616;29;20024;-80
2023/02/22 02:10:14;;;;;;;7.78;1.67;;;-1.20;99.90;;;;;;8156183;29;20031;-80
2023/02/22 02:14:15;;;;;;;2.83;1.45;;;-1.10;99.90;;;;;;8140430;29;20043;-80
2023/02/22 02:18:16;;;;;;;6.82;2.08;;;-1.00;99.90;;;;;;8139988;29;20036;-80
2023/02/22 02:22:46;;;;;;;2.90;1.67;;;-1.00;99.90;;;;;;8140282;29;20036;-80
2023/02/22 02:27:14;;;;;;;2.92;2.08;;;-1.10;99.90;;;;;;8140799;29;20024;-80
2023/02/22 02:31:34;;;;;;;3.45;1.48;;;-1.30;99.90;;;;;;8140541;29;20650;-80
2023/02/22 02:35:59;;;;;;;4.57;2.15;;;-1.30;99.90;;;;;;8138441;29;20044;-79
2023/02/22 02:40:24;;;;;;;4.75;1.80;;;-1.00;99.90;;;;;;8140323;29;20099;-79
2023/02/22 02:44:33;;;;;;;6.25;2.13;;;-0.90;99.90;;;;;;8116228;29;20036;-80
2023/02/22 02:48:35;;;;;;;4.07;2.10;;;-0.90;99.90;;;;;;8139547;29;20031;-81
2023/02/22 02:52:38;;;;;;;2.40;1.67;;;-1.00;99.90;;;;;;8139783;29;20032;-81
2023/02/22 02:56:39;;;;;;;3.25;1.80;;;-1.00;99.90;;;;;;8140333;29;20035;-81
2023/02/22 03:00:41;;;;;;;4.03;2.25;;;-1.00;99.90;;;;;;8139769;29;20147;-81
2023/02/22 03:04:58;;;;;;;3.65;1.88;;;-1.20;99.90;;;;;;8139303;29;20028;-82
2023/02/22 03:09:18;;;;;;;5.95;2.13;;;-1.30;99.90;;;;;;8141311;29;20018;-81
2023/02/22 03:13:27;;;;;;;;;;;-1.30;99.90;;;;;;8139412;29;20520;-81
2023/02/22 03:17:40;;;;;;;3.28;1.90;;;-1.40;99.90;;;;;;8138966;29;19913;-81
2023/02/22 03:22:01;;;;;;;6.53;1.92;;;-1.40;99.90;;;;;;8140889;29;20024;-80
2023/02/22 03:26:12;;;;;;;3.35;1.65;;;-1.50;99.90;;;;;;8136057;29;20087;-80
2023/02/22 03:30:30;;;;;;;2.45;1.20;;;-1.70;99.90;;;;;;8139388;29;20060;-81
2023/02/22 03:34:36;;;;;;;8.75;2.20;;;-1.60;99.90;;;;;;8134879;29;20082;-81
2023/02/22 03:38:40;;;;;;;3.20;1.88;;;-1.60;99.90;;;;;;8139906;29;20056;-81
2023/02/22 03:42:54;;;;;;;2.53;1.67;;;-1.40;99.90;;;;;;8138556;29;20028;-80
2023/02/22 03:46:58;;;;;;;2.10;1.60;;;-1.30;99.90;;;;;;8138765;29;20024;-81
2023/02/22 03:50:59;;;;;;;3.90;1.83;;;-1.10;99.90;;;;;;8137531;29;20016;-81
2023/02/22 03:55:01;;;;;;;3.50;1.52;;;-1.10;99.90;;;;;;8139498;29;20107;-81
2023/02/22 03:59:06;;;;;;;2.17;1.45;;;-1.30;99.90;;;;;;8136161;29;20114;-80
2023/02/22 04:03:06;;;;;;;2.38;1.60;;;-1.20;99.90;;;;;;8137881;29;20591;-81
2023/02/22 04:07:07;;;;;;;2.42;1.50;;;-1.30;99.90;;;;;;8137330;29;20096;-80
2023/02/22 04:11:08;;;;;;;3.30;1.92;;;-1.30;99.90;;;;;;8138436;29;20055;-81
2023/02/22 04:15:12;;;;;;;2.58;1.52;;;-1.50;99.90;;;;;;8131802;29;20036;-81
2023/02/22 04:19:12;;;;;;;6.40;1.60;;;-1.70;99.90;;;;;;8137618;29;20099;-81
2023/02/22 04:23:13;;;;;;;5.60;1.90;;;-1.90;99.90;;;;;;8137834;29;20582;-79
2023/02/22 04:27:15;;;;;;;2.20;1.50;;;-2.00;99.90;;;;;;8137043;29;20035;-81
2023/02/22 04:31:16;;;;;;;2.80;1.80;;;-2.00;99.90;;;;;;8132444;29;20541;-81
2023/02/22 04:35:17;;;;;;;3.08;1.63;;;-2.00;99.90;;;;;;8137747;29;20059;-81
2023/02/22 04:39:17;;;;;;;3.97;1.67;;;-1.80;99.90;;;;;;8136831;29;20485;-81
2023/02/22 04:43:18;;;;;;;2.28;1.50;;;-1.70;99.90;;;;;;8131613;29;20051;-81
2023/02/22 04:47:19;;;;;;;2.88;1.30;;;-1.50;99.90;;;;;;8135147;29;20039;-81
2023/02/22 04:51:23;;;;;;;2.60;1.88;;;-1.40;99.90;;;;;;8138950;29;20597;-82
2023/02/22 04:55:23;;;;;;;4.55;1.65;;;-1.40;99.90;;;;;;8142969;23;20121;-80
2023/02/22 04:59:24;;;;;;;5.93;2.22;;;-1.70;99.90;;;;;;8105759;29;20024;-81
2023/02/22 05:03:25;;;;;;;2.38;1.35;;;-1.80;99.90;;;;;;8104015;29;20028;-81
2023/02/22 05:07:25;;;;;;;1.92;1.38;;;-1.90;99.90;;;;;;8106776;29;20087;-81
2023/02/22 05:11:26;;;;;;;2.72;1.45;;;-1.90;99.90;;;;;;8104170;29;20107;-81
2023/02/22 05:15:26;;;;;;;4.72;1.65;;;-2.00;99.90;;;;;;8103855;29;20052;-81
2023/02/22 05:19:27;;;;;;;2.72;1.80;;;-2.00;99.90;;;;;;8103656;29;20039;-81
2023/02/22 05:23:28;;;;;;;3.22;2.10;;;-2.20;99.90;;;;;;8106097;29;20035;-80
2023/02/22 05:27:28;;;;;;;1.75;1.30;;;-2.30;99.90;;;;;;8121015;29;20494;-80
2023/02/22 05:31:29;;;;;;;2.28;1.55;;;-2.30;99.90;;;;;;8106462;29;20025;-79
2023/02/22 05:35:29;;;;;;;2.53;1.38;;;-2.20;99.90;;;;;;8112800;29;20104;-82
2023/02/22 05:39:30;;;;;;;2.97;1.58;;;-2.10;99.90;;;;;;8130812;29;20033;-82
2023/02/22 05:43:31;;;;;;;2.15;1.77;;;-2.10;99.90;;;;;;8108506;29;20497;-82
2023/02/22 05:47:31;;;;;;;3.47;2.17;;;-2.00;99.90;;;;;;8107794;29;20072;-82
2023/02/22 05:51:32;;;;;;;2.80;1.60;;;-2.10;99.90;;;;;;8107942;29;20535;-81
2023/02/22 05:55:32;;;;;;;4.65;1.65;;;-2.20;99.90;;;;;;8124946;29;20088;-82
2023/02/22 05:59:33;;;;;;;2.20;1.45;;;-2.30;99.90;;;;;;8106451;29;20028;-82
2023/02/22 06:03:34;;;;;;;3.60;2.13;;;;;;;;;;8108406;29;20100;-82
2023/02/22 06:07:34;;;;;;;2.45;1.80;;;-2.30;99.90;;;;;;8106181;29;20016;-82
2023/02/22 06:11:36;;;;;;;2.78;1.60;;;-2.60;99.90;;;;;;8107153;29;20016;-82
2023/02/22 06:15:36;;;;;;;4.05;1.85;;;-2.60;99.90;;;;;;8110463;29;20032;-82
2023/02/22 06:19:37;;;;;;;2.45;1.80;;;-2.70;99.90;;;;;;8113470;29;20031;-82
2023/02/22 06:23:38;;;;;;;4.05;1.88;;;-2.70;99.90;;;;;;8111150;29;20121;-82
2023/02/22 06:27:38;;;;;;;4.15;2.42;;;-2.70;99.90;;;;;;8111445;29;20021;-82
2023/02/22 06:31:39;;;;;;;9.57;3.97;;;-2.50;99.90;;;;;;8129667;29;20017;-82
2023/02/22 06:35:39;;;;;;;19.30;8.77;;;-2.30;99.90;;;;;;8111007;29;20526;-82
2023/02/22 06:39:40;;;;;;;16.83;6.97;;;-2.30;99.90;;;;;;8112443;29;20103;-82
2023/02/22 06:43:40;;;;;;;14.13;6.22;;;-2.10;99.90;;;;;;8110724;29;20099;-81
2023/02/22 06:47:41;;;;;;;9.98;4.85;;;-1.90;99.90;;;;;;8126520;29;20437;-82
2023/02/22 06:51:42;;;;;;;6.47;2.90;;;-1.70;99.90;;;;;;8111743;29;20044;-82
2023/02/22 06:55:42;;;;;;;15.15;6.50;;;-1.70;99.90;;;;;;8112617;29;20052;-82
2023/02/22 06:59:43;;;;;;;8.55;3.67;;;-1.60;99.90;;;;;;8111228;29;21457;-82
2023/02/22 07:03:44;;;;;;;7.57;3.83;;;-1.50;99.90;;;;;;8110580;29;20039;-81
2023/02/22 07:07:45;;;;;;;13.32;4.18;;;-1.30;99.90;;;;;;8110886;29;20021;-82
2023/02/22 07:11:45;;;;;;;21.35;7.97;;;-1.00;99.90;;;;;;8110537;29;20025;-82
2023/02/22 07:15:46;;;;;;;20.65;6.95;;;-0.30;99.90;;;;;;8110280;29;20028;-82
2023/02/22 07:19:47;;;;;;;21.45;7.00;;;-0.20;99.90;;;;;;8134096;29;20040;-82
2023/02/22 07:23:52;;;;;;;12.93;6.05;;;0.00;99.90;;;;;;8111560;29;20564;-82
2023/02/22 07:27:53;;;;;;;14.40;6.78;;;0.40;99.90;;;;;;8108960;29;20475;-81
2023/02/22 07:31:53;;;;;;;10.18;5.10;;;0.70;99.90;;;;;;8125495;29;20016;-82
2023/02/22 07:35:54;;;;;;;9.05;3.90;;;0.80;99.90;;;;;;8110133;29;20028;-82
2023/02/22 07:39:54;;;;;;;10.75;5.50;;;0.90;99.90;;;;;;8110899;29;20080;-82
2023/02/22 07:43:55;;;;;;;12.73;5.15;;;1.40;99.90;;;;;;8130721;29;20098;-81
2023/02/22 07:47:56;;;;;;;13.85;6.18;;;1.30;99.90;;;;;;8111083;29;20092;-81
2023/02/22 07:51:56;;;;;;;13.07;6.32;;;1.50;99.90;;;;;;8109893;29;20024;-81
2023/02/22 07:56:01;;;;;;;19.13;7.13;;;1.80;99.90;;;;;;8110270;29;20032;-80
2023/02/22 08:00:03;;;;;;;15.65;6.82;;;2.10;99.90;;;;;;8110873;29;20036;-80
2023/02/22 08:04:03;;;;;;;11.52;6.03;;;2.60;99.90;;;;;;8119663;29;20103;-80
2023/02/22 08:08:06;;;;;;;12.18;5.43;;;3.10;99.90;;;;;;8126767;29;20031;-80
2023/02/22 08:12:06;;;;;;;9.00;5.00;;;3.20;99.90;;;;;;8106905;29;20047;-81
2023/02/22 08:16:07;;;;;;;10.52;5.20;;;3.20;99.90;;;;;;8106558;29;20033;-80
2023/02/22 08:20:07;;;;;;;12.07;5.00;;;3.90;99.90;;;;;;8105451;29;20020;-81
2023/02/22 08:24:08;;;;;;;7.40;4.20;;;3.90;99.90;;;;;;8107243;29;20024;-80
2023/02/22 08:28:11;;;;;;;7.22;4.10;;;4.20;99.90;;;;;;8105872;29;20032;-82
2023/02/22 08:32:12;;;;;;;8.80;4.63;;;4.50;99.90;;;;;;8107417;29;20495;-81
2023/02/22 08:36:12;;;;;;;4.70;3.63;;;4.60;99.90;;;;;;8122982;29;20028;-81
2023/02/22 08:40:16;;;;;;;6.18;3.63;;;5.00;99.90;;;;;;8106894;29;20455;-82
2023/02/22 08:44:16;;;;;;;9.82;5.07;;;5.60;99.90;;;;;;8106199;29;20044;-82
2023/02/22 08:48:17;;;;;;;9.85;5.25;;;6.10;99.90;;;;;;8108869;29;20052;-82
2023/02/22 08:52:20;;;;;;;8.68;5.22;;;6.20;99.90;;;;;;8106952;29;20033;-82
2023/02/22 08:56:22;;;;;;;11.45;5.22;;;6.40;99.90;;;;;;8125180;29;20044;-82
2023/02/22 09:00:24;;;;;;;6.93;4.60;;;7.00;99.90;;;;;;8105235;29;20032;-81
2023/02/22 09:04:24;;;;;;;7.55;4.60;;;7.40;99.90;;;;;;8107041;29;20132;-81
2023/02/22 09:08:25;;;;;;;9.32;4.50;;;7.70;99.90;;;;;;8106906;29;20024;-81
2023/02/22 09:12:25;;;;;;;11.52;5.25;;;8.10;99.90;;;;;;8106587;29;20115;-82
2023/02/22 09:16:26;;;;;;;11.73;5.00;;;8.40;99.90;;;;;;8107051;29;20091;-82
2023/02/22 09:20:27;;;;;;;9.98;4.40;;;8.50;99.90;;;;;;8107045;29;20494;-82
2023/02/22 09:24:28;;;;;;;9.00;4.18;;;8.60;99.90;;;;;;8106046;29;20029;-82
2023/02/22 09:28:29;;;;;;;7.45;3.92;;;8.90;99.90;;;;;;8105841;29;20100;-82
2023/02/22 09:32:29;;;;;;;7.28;3.70;;;9.20;99.90;;;;;;8127268;29;20140;-82
2023/02/22 09:36:30;;;;;;;5.80;3.47;;;9.20;99.90;;;;;;8105013;29;20025;-82
2023/02/22 09:40:32;;;;;;;6.88;3.90;;;9.40;99.90;;;;;;8105222;29;20079;-82
2023/02/22 09:44:47;;;;;;;7.97;3.95;;;9.90;99.90;;;;;;8105254;29;20025;-82
2023/02/22 09:49:06;;;;;;;8.30;3.90;;;10.40;99.90;;;;;;8106851;29;20366;-82
2023/02/22 09:53:29;;;;;;;7.05;4.32;;;10.40;99.90;;;;;;8108343;29;20039;-82
2023/02/22 09:57:38;;;;;;;8.85;4.53;;;10.60;99.90;;;;;;8110857;29;20029;-81
2023/02/22 10:01:43;;;;;;;10.13;4.45;;;10.90;99.90;;;;;;8110199;29;20031;-82
2023/02/22 10:06:02;;;;;;;7.88;4.00;;;11.00;99.90;;;;;;8110130;29;20025;-80
2023/02/22 10:10:05;;;;;;;7.05;4.10;;;11.30;99.90;;;;;;8106590;29;20072;-82
2023/02/22 10:14:42;;;;;;;6.60;4.03;;;11.30;99.90;;;;;;8109629;29;20044;-82
2023/02/22 10:18:55;;;;;;;8.95;4.45;;;11.80;99.90;;;;;;8110188;29;20548;-82
2023/02/22 10:23:14;;;;;;;6.38;4.22;;;12.10;99.90;;;;;;8111388;29;20016;-82
2023/02/22 10:27:32;;;;;;;10.70;4.57;;;12.60;99.90;;;;;;8132119;29;20032;-82
2023/02/22 10:31:37;;;;;;;7.82;4.75;;;13.10;99.90;;;;;;8110101;29;20041;-82
2023/02/22 10:35:40;;;;;;;9.23;4.82;;;12.90;99.90;;;;;;8109715;29;20047;-82
2023/02/22 10:39:42;;;;;;;9.25;4.47;;;12.80;99.90;;;;;;8109775;29;20508;-82
2023/02/22 10:43:43;;;;;;;11.77;6.30;;;13.40;99.90;;;;;;8111159;29;20029;-82
2023/02/22 10:47:44;;;;;;;10.80;5.95;;;13.70;99.90;;;;;;8131885;29;20060;-82
2023/02/22 10:51:56;;;;;;;10.25;6.13;;;14.10;99.90;;;;;;8110492;29;20061;-82
2023/02/22 10:56:06;;;;;;;12.07;6.20;;;14.40;99.90;;;;;;8109710;29;20068;-82
2023/02/22 11:00:31;;;;;;;11.88;6.45;;;14.40;99.90;;;;;;8107861;29;20056;-82
2023/02/22 11:04:49;;;;;;;11.07;6.50;;;14.50;99.90;;;;;;8107012;29;20028;-82
2023/02/22 11:08:51;;;;;;;11.43;6.88;;;14.80;99.90;;;;;;8108461;29;20060;-80
2023/02/22 11:12:52;;;;;;;13.02;6.90;;;15.00;99.90;;;;;;8109111;29;20048;-81
2023/02/22 11:16:55;;;;;;;12.93;8.50;;;15.20;99.90;;;;;;8109479;29;20048;-81
2023/02/22 11:21:21;;;;;;;15.18;7.82;;;15.10;99.90;;;;;;8108290;29;20025;-81
2023/02/22 11:25:35;;;;;;;12.73;7.43;;;14.80;99.90;;;;;;8108906;29;20029;-82
2023/02/22 11:29:37;;;;;;;12.07;7.88;;;14.60;99.90;;;;;;8109767;29;20111;-82
2023/02/22 11:33:38;;;;;;;13.13;7.70;;;15.00;99.90;;;;;;8107888;29;20057;-81
2023/02/22 11:37:38;;;;;;;13.93;8.60;;;15.60;99.90;;;;;;8107814;29;20029;-82
2023/02/22 11:41:39;;;;;;;13.07;7.60;;;16.10;99.90;;;;;;8125411;29;20087;-81
2023/02/22 11:45:59;;;;;;;14.73;8.45;;;17.00;99.90;;;;;;8129561;29;20530;-82
2023/02/22 11:50:01;;;;;;;14.57;8.07;;;17.20;99.90;;;;;;8109986;29;20049;-82
2023/02/22 11:54:27;;;;;;;19.17;8.52;;;18.50;99.90;;;;;;8107410;29;20048;-81
2023/02/22 11:58:36;;;;;;;16.52;9.15;;;18.40;99.90;;;;;;8134244;29;20021;-81
2023/02/22 12:02:54;;;;;;;15.18;9.55;;;18.60;99.90;;;;;;8106513;29;20040;-81
2023/02/22 12:07:16;;;;;;;18.17;8.82;;;18.50;99.90;;;;;;8108307;29;20383;-82
2023/02/22 12:11:38;;;;;;;14.80;8.65;;;18.50;99.40;;;;;;8126432;29;20033;-82
2023/02/22 12:15:55;;;;;;;14.48;9.13;;;17.90;99.90;;;;;;8104527;29;20027;-81
2023/02/22 12:20:05;;;;;;;16.00;8.48;;;17.90;99.90;;;;;;8106694;29;20080;-79
2023/02/22 12:24:15;;;;;;;15.18;9.20;;;18.10;99.80;;;;;;8127554;29;20063;-81
2023/02/22 12:28:22;;;;;;;14.25;9.02;;;18.30;99.80;;;;;;8105967;29;20028;-80
2023/02/22 12:32:40;;;;;;;15.02;8.77;;;19.10;99.10;;;;;;8104853;29;20378;-81
2023/02/22 12:36:48;;;;;;;14.45;9.18;;;20.50;95.80;;;;;;8105358;29;20047;-81
2023/02/22 12:41:02;;;;;;;16.55;8.98;;;21.30;93.30;;;;;;8105567;29;20030;-81
2023/02/22 12:45:15;;;;;;;11.98;7.88;;;20.90;91.80;;;;;;8106143;29;20039;-81
2023/02/22 12:49:25;;;;;;;15.07;8.27;;;19.10;93.30;;;;;;8106738;29;20449;-81
2023/02/22 12:53:34;;;;;;;15.73;8.82;;;17.80;96.90;;;;;;8104414;29;20036;-81
2023/02/22 12:57:47;;;;;;;12.98;8.52;;;17.10;97.90;;;;;;8106708;29;20021;-81
2023/02/22 13:01:57;;;;;;;15.90;9.60;;;16.60;99.40;;;;;;8104800;29;20111;-81
2023/02/22 13:06:29;;;;;;;14.45;8.93;;;16.70;99.90;;;;;;8105086;29;20050;-80
2023/02/22 13:10:59;;;;;;;15.88;8.77;;;16.60;98.80;;;;;;8121045;29;20497;-81
2023/02/22 13:15:09;;;;;;;18.03;9.23;;;16.50;99.90;;;;;;8104704;29;20028;-82
2023/02/22 13:19:33;;;;;;;15.07;8.30;;;16.60;99.30;;;;;;8103625;29;20067;-81
2023/02/22 13:23:46;;;;;;;15.02;9.05;;;16.70;97.90;;;;;;8105789;29;20031;-81
2023/02/22 13:28:15;;;;;;;16.38;9.40;;;16.80;99.10;;;;;;8127189;29;20028;-80
2023/02/22 13:32:34;;;;;;;16.48;9.48;;;17.00;98.90;;;;;;8088959;29;20097;-81
2023/02/22 13:36:40;;;;;;;12.55;8.43;;;17.20;98.40;;;;;;8103040;29;20482;-81
2023/02/22 13:40:47;;;;;;;13.50;8.70;;;17.20;99.40;;;;;;8111458;29;20021;-81
2023/02/22 13:45:15;;;;;;;17.63;9.55;;;16.90;99.90;;;;;;8109241;29;20084;-80
2023/02/22 13:49:33;;;;;;;13.80;8.52;;;17.00;99.10;;;;;;8108498;29;20029;-81
2023/02/22 13:53:49;;;;;;;17.15;9.50;;;16.90;98.30;;;;;;8108699;29;20036;-81
2023/02/22 13:57:57;;;;;;;12.23;8.25;;;16.40;99.80;;;;;;8116237;29;20032;-81
2023/02/22 14:02:03;;;;;;;15.10;9.27;;;16.10;99.70;;;;;;8105392;29;20077;-81
2023/02/22 14:06:23;;;;;;;16.23;9.15;;;15.80;99.90;;;;;;8103422;29;20573;-81
2023/02/22 14:10:48;;;;;;;16.47;9.07;;;15.60;99.90;;;;;;8102636;29;20551;-81
2023/02/22 14:15:09;;;;;;;14.20;9.00;;;15.50;99.90;;;;;;8102503;29;20040;-81
2023/02/22 14:19:12;;;;;;;18.50;9.25;;;15.30;99.90;;;;;;8103184;29;20169;-81
2023/02/22 14:23:43;;;;;;;16.85;8.25;;;15.50;99.90;;;;;;8102651;29;20081;-81
2023/02/22 14:27:43;;;;;;;21.38;9.75;;;15.70;99.90;;;;;;8101107;29;20028;-81
2023/02/22 14:31:45;;;;;;;16.05;9.75;;;15.70;99.90;;;;;;8104080;29;20084;-81
2023/02/22 14:35:45;;;;;;;13.48;8.80;;;15.70;99.90;;;;;;8106428;29;20111;-81
2023/02/22 14:40:17;;;;;;;15.50;9.70;;;15.70;99.90;;;;;;8110581;29;20501;-81
2023/02/22 14:44:20;;;;;;;;;;;15.80;99.90;;;;;;8105073;29;20386;-81
2023/02/22 14:48:38;;;;;;;19.30;9.55;;;16.10;99.90;;;;;;8108354;29;19923;-81
2023/02/22 14:52:41;;;;;;;16.52;9.00;;;16.10;99.90;;;;;;8105768;29;20040;-81
2023/02/22 14:56:51;;;;;;;15.70;9.60;;;15.70;99.90;;;;;;8107468;29;20490;-81
2023/02/22 15:00:55;;;;;;;16.07;8.67;;;15.60;99.90;;;;;;8103009;29;20033;-80
2023/02/22 15:04:56;;;;;;;14.38;9.18;;;15.20;99.90;;;;;;8108295;29;20028;-80
2023/02/22 15:09:14;;;;;;;15.20;8.57;;;14.70;99.90;;;;;;8108540;29;20031;-81
2023/02/22 15:13:25;;;;;;;18.95;9.57;;;14.80;99.90;;;;;;8108311;29;20092;-81
2023/02/22 15:17:26;;;;;;;20.90;8.90;;;14.50;99.90;;;;;;8108237;29;20241;-81
2023/02/22 15:21:28;;;;;;;16.52;9.75;;;14.50;99.90;;;;;;8108420;29;20551;-80
2023/02/22 15:25:30;;;;;;;17.52;9.60;;;14.40;99.90;;;;;;8108589;29;20080;-81
2023/02/22 15:29:35;;;;;;;16.20;9.15;;;14.20;99.90;;;;;;8107497;29;20035;-81
2023/02/22 15:33:36;;;;;;;17.70;8.95;;;14.00;99.90;;;;;;8106155;29;20059;-82
2023/02/22 15:37:37;;;;;;;16.35;9.75;;;14.00;99.90;;;;;;8106575;29;20031;-82
2023/02/22 15:41:37;;;;;;;15.45;9.35;;;13.70;99.90;;;;;;8106935;29;20679;-81
2023/02/22 15:45:41;;;;;;;15.32;9.20;;;13.40;99.90;;;;;;8107071;29;20039;-81
2023/02/22 15:49:42;;;;;;;13.35;8.52;;;13.50;99.90;;;;;;8104811;29;20103;-80
2023/02/22 15:53:43;;;;;;;16.30;8.98;;;13.30;99.90;;;;;;8107416;29;20080;-80
2023/02/22 15:57:44;;;;;;;14.43;8.68;;;13.30;99.90;;;;;;8107152;29;20099;-80
2023/02/22 16:01:46;;;;;;;13.68;8.40;;;12.90;99.90;;;;;;8114719;29;20076;-79
2023/02/22 16:05:50;;;;;;;14.63;8.63;;;12.70;99.90;;;;;;8100176;29;20412;-80
2023/02/22 16:09:51;;;;;;;13.07;8.52;;;12.50;99.90;;;;;;8101658;29;20052;-81
2023/02/22 16:13:53;;;;;;;13.63;8.45;;;12.40;99.90;;;;;;8102064;29;20458;-81
2023/02/22 16:17:53;;;;;;;13.82;8.00;;;12.20;99.90;;;;;;8094480;29;20048;-81
2023/02/22 16:22:01;;;;;;;15.93;8.63;;;12.20;99.90;;;;;;8097204;29;20032;-81
2023/02/22 16:26:22;;;;;;;20.75;9.02;;;12.10;99.90;;;;;;8097703;29;20029;-81
2023/02/22 16:30:33;;;;;;;;;;;11.80;99.90;;;;;;8128223;29;20092;-82
2023/02/22 16:34:33;;;;;;;14.43;8.00;;;11.60;99.90;;;;;;8101094;29;20403;-81
2023/02/22 16:38:37;;;;;;;14.20;8.20;;;11.50;99.90;;;;;;8105649;29;20020;-82
2023/02/22 16:42:37;;;;;;;12.85;8.05;;;11.40;99.90;;;;;;8124244;29;20483;-82
2023/02/22 16:46:40;;;;;;;14.73;9.10;;;11.10;99.90;;;;;;8105111;29;20028;-82
2023/02/22 16:50:41;;;;;;;14.00;8.43;;;11.00;99.90;;;;;;8106208;29;20028;-81
2023/02/22 16:54:44;;;;;;;16.70;8.10;;;10.80;99.90;;;;;;8105859;29;20293;-81
2023/02/22 16:58:48;;;;;;;18.08;9.23;;;10.90;99.90;;;;;;8104786;29;20032;-81
2023/02/22 17:02:49;;;;;;;49.35;17.00;;;10.80;99.90;;;;;;8104744;29;20489;-82
2023/02/22 17:06:49;;;;;;;18.88;9.68;;;10.70;99.90;;;;;;8104956;29;20067;-82
2023/02/22 17:10:55;;;;;;;16.70;8.57;;;10.50;99.90;;;;;;8131242;29;20512;-81
2023/02/22 17:14:56;;;;;;;16.48;9.30;;;10.40;99.90;;;;;;8104636;29;20127;-81
2023/02/22 17:18:56;;;;;;;17.63;9.65;;;10.10;99.90;;;;;;8103382;29;20037;-81
2023/02/22 17:23:06;;;;;;;19.27;9.73;;;9.80;99.90;;;;;;8103323;29;20036;-81
2023/02/22 17:27:07;;;;;;;18.42;9.38;;;9.60;99.90;;;;;;8102571;29;20490;-82
2023/02/22 17:31:19;;;;;;;17.02;9.23;;;9.50;99.90;;;;;;8104844;29;20036;-81
2023/02/22 17:35:22;;;;;;;15.90;8.73;;;9.00;99.90;;;;;;8103714;29;20028;-82
2023/02/22 17:39:23;;;;;;;25.55;11.60;;;8.80;99.90;;;;;;8103829;29;20406;-82
2023/02/22 17:43:26;;;;;;;30.08;13.00;;;8.50;99.90;;;;;;8102389;29;20040;-80
2023/02/22 17:47:27;;;;;;;35.40;16.23;;;8.50;99.90;;;;;;8101368;29;20509;-80
2023/02/22 17:51:28;;;;;;;33.28;15.80;;;8.40;99.90;;;;;;8097149;29;20161;-80
2023/02/22 17:55:29;;;;;;;34.97;14.82;;;8.30;99.90;;;;;;8112921;29;20152;-81
2023/02/22 17:59:29;;;;;;;32.90;15.63;;;8.20;99.90;;;;;;8093766;29;20036;-81
2023/02/22 18:03:30;;;;;;;31.27;15.43;;;7.90;99.90;;;;;;8098606;29;20035;-82
2023/02/22 18:07:31;;;;;;;45.05;18.75;;;7.70;99.90;;;;;;8102469;29;20049;-81
2023/02/22 18:11:31;;;;;;;42.75;21.38;;;7.60;99.90;;;;;;8104520;29;20033;-80
2023/02/22 18:15:34;;;;;;;38.35;18.45;;;7.70;99.90;;;;;;8106346;29;20031;-80
2023/02/22 18:19:34;;;;;;;40.28;17.52;;;7.50;99.90;;;;;;8108440;29;20029;-79
2023/02/22 18:23:35;;;;;;;29.95;15.57;;;7.60;99.90;;;;;;8098384;29;20029;-79
2023/02/22 18:27:36;;;;;;;19.60;10.75;;;7.60;99.90;;;;;;8096185;29;20450;-80
2023/02/22 18:31:37;;;;;;;18.85;10.05;;;7.70;99.90;;;;;;8101440;29;20092;-79
2023/02/22 18:35:51;;;;;;;19.35;9.45;;;7.60;99.90;;;;;;8114376;29;20028;-80
2023/02/22 18:39:54;;;;;;;16.25;9.00;;;7.60;99.90;;;;;;8105303;29;20500;-80
2023/02/22 18:43:57;;;;;;;23.40;11.40;;;7.80;99.90;;;;;;8130978;29;20791;-80
2023/02/22 18:47:58;;;;;;;23.25;12.52;;;7.90;99.90;;;;;;8104495;29;20028;-79
2023/02/22 18:51:58;;;;;;;16.33;8.88;;;8.00;99.90;;;;;;8100459;29;20052;-80
2023/02/22 18:56:15;;;;;;;29.67;14.80;;;8.10;99.90;;;;;;8098466;29;20043;-79
2023/02/22 19:00:23;;;;;;;15.73;9.25;;;8.10;99.90;;;;;;8101874;29;20505;-80
2023/02/22 19:04:26;;;;;;;16.50;8.73;;;7.90;99.90;;;;;;8118951;29;20036;-80
2023/02/22 19:08:27;;;;;;;15.05;8.20;;;7.90;99.90;;;;;;8103839;29;20551;-80
2023/02/22 19:12:30;;;;;;;16.42;7.97;;;8.20;99.90;;;;;;8100174;29;20037;-80
2023/02/22 19:16:31;;;;;;;16.73;8.48;;;8.40;99.90;;;;;;8105111;29;20466;-80
2023/02/22 19:20:32;;;;;;;15.07;8.10;;;8.40;99.90;;;;;;8100951;29;20116;-79
2023/02/22 19:24:35;;;;;;;14.07;7.95;;;8.40;99.90;;;;;;8097434;29;20036;-79
2023/02/22 19:28:35;;;;;;;16.77;8.05;;;8.50;99.90;;;;;;8099433;29;20040;-78
2023/02/22 19:32:36;;;;;;;14.90;7.95;;;8.20;99.90;;;;;;8098005;29;20489;-78
2023/02/22 19:36:42;;;;;;;16.48;8.50;;;8.20;99.90;;;;;;8105489;29;20025;-80
2023/02/22 19:40:59;;;;;;;19.00;7.95;;;7.90;99.90;;;;;;8110032;29;20024;-79
2023/02/22 19:45:00;;;;;;;16.55;7.75;;;7.80;99.90;;;;;;8107956;29;20123;-79
2023/02/22 19:49:01;;;;;;;14.10;7.40;;;7.80;99.90;;;;;;8106784;29;20406;-80
2023/02/22 19:53:02;;;;;;;13.98;7.25;;;7.50;99.90;;;;;;8128727;29;20029;-80
2023/02/22 19:57:04;;;;;;;14.60;7.93;;;7.60;99.90;;;;;;8108117;29;20024;-79
2023/02/22 20:01:21;;;;;;;17.25;7.75;;;7.80;99.90;;;;;;8110345;29;20074;-80
2023/02/22 20:05:22;;;;;;;12.07;7.30;;;7.70;99.90;;;;;;8102463;29;20029;-80
2023/02/22 20:09:35;;;;;;;15.18;7.97;;;7.80;99.90;;;;;;8105925;29;20508;-80
2023/02/22 20:13:39;;;;;;;16.60;8.10;;;7.80;99.90;;;;;;8108623;29;20446;-79
2023/02/22 20:17:40;;;;;;;21.15;8.45;;;7.50;99.90;;;;;;8107237;29;20028;-79
2023/02/22 20:21:41;;;;;;;16.13;8.52;;;;;;;;;;8105849;29;20108;-78
2023/02/22 20:25:42;;;;;;;14.40;7.45;;;7.10;99.90;;;;;;8105978;29;20033;-79
2023/02/22 20:29:42;;;;;;;17.80;8.35;;;6.70;99.90;;;;;;8131307;29;20025;-80
2023/02/22 20:33:44;;;;;;;16.38;8.68;;;7.00;99.90;;;;;;8125812;29;20032;-80
2023/02/22 20:37:45;;;;;;;15.35;7.63;;;6.50;99.90;;;;;;8106339;29;20060;-79
2023/02/22 20:41:45;;;;;;;16.00;7.30;;;6.40;99.90;;;;;;8125568;29;20558;-79
2023/02/22 20:45:46;;;;;;;18.35;8.32;;;6.50;99.90;;;;;;8104740;29;20036;-79
2023/02/22 20:49:47;;;;;;;15.95;8.40;;;6.20;99.90;;;;;;8125653;29;20120;-79
2023/02/22 20:53:47;;;;;;;15.88;8.07;;;5.80;99.90;;;;;;8103523;29;20036;-79
2023/02/22 20:57:48;;;;;;;16.67;8.43;;;5.80;99.90;;;;;;8102859;29;20036;-79
2023/02/22 21:01:49;;;;;;;16.20;8.57;;;5.80;99.90;;;;;;8101672;29;21348;-78
2023/02/22 21:05:49;;;;;;;20.55;8.50;;;5.60;99.90;;;;;;8103185;29;20490;-79
2023/02/22 21:09:51;;;;;;;20.98;9.20;;;5.80;99.90;;;;;;8129443;29;20543;-77
2023/02/22 21:13:52;;;;;;;15.45;8.52;;;5.80;99.90;;;;;;8102566;29;20032;-78
2023/02/22 21:17:53;;;;;;;14.82;8.77;;;5.70;99.90;;;;;;8102882;29;20025;-79